createdAt,value
2017-11-11T00:00:33.467Z,100.0
2017-11-11T00:01:35.155Z,100.0
2017-11-11T00:02:36.890Z,100.0
2017-11-11T00:03:38.550Z,100.0
2017-11-11T00:04:40.303Z,100.0
2017-11-11T00:05:41.980Z,100.0
2017-11-11T00:06:43.657Z,100.0
2017-11-11T00:07:45.361Z,100.0
2017-11-11T00:08:47.074Z,100.0
2017-11-11T00:09:48.798Z,100.0
2017-11-11T00:10:50.517Z,100.0
2017-11-11T00:11:52.166Z,100.0
2017-11-11T00:12:53.906Z,100.0
2017-11-11T00:13:55.608Z,100.0
2017-11-11T00:14:57.272Z,100.0
2017-11-11T00:15:58.957Z,100.0
2017-11-11T00:17:00.642Z,100.0
2017-11-11T00:18:02.360Z,100.0
2017-11-11T00:19:04.048Z,100.0
2017-11-11T00:20:05.754Z,100.0
2017-11-11T00:21:07.404Z,100.0
2017-11-11T00:22:09.118Z,100.0
2017-11-11T00:23:10.829Z,100.0
2017-11-11T00:24:12.515Z,100.0
2017-11-11T00:25:14.228Z,100.0
2017-11-11T00:26:15.923Z,100.0
2017-11-11T00:27:17.593Z,100.0
2017-11-11T00:28:19.223Z,100.0
2017-11-11T00:29:20.969Z,100.0
2017-11-11T00:30:22.666Z,100.0
2017-11-11T00:31:24.357Z,100.0
2017-11-11T00:32:26.039Z,100.0
2017-11-11T00:33:27.714Z,100.0
2017-11-11T00:34:29.404Z,100.0
2017-11-11T00:35:31.117Z,100.0
2017-11-11T00:36:32.785Z,100.0
2017-11-11T00:37:34.520Z,100.0
2017-11-11T00:38:36.202Z,100.0
2017-11-11T00:39:37.881Z,100.0
2017-11-11T00:40:39.621Z,100.0
2017-11-11T00:41:41.339Z,100.0
2017-11-11T00:42:42.989Z,100.0
2017-11-11T00:43:44.694Z,100.0
2017-11-11T00:44:46.382Z,100.0
2017-11-11T00:45:48.086Z,100.0
2017-11-11T00:46:49.713Z,100.0
2017-11-11T00:47:51.337Z,100.0
2017-11-11T00:48:53.009Z,100.0
2017-11-11T00:49:54.730Z,100.0
2017-11-11T00:50:56.445Z,100.0
2017-11-11T00:51:58.128Z,100.0
2017-11-11T00:52:59.844Z,100.0
2017-11-11T00:54:01.558Z,100.0
2017-11-11T00:55:03.247Z,100.0
2017-11-11T00:56:04.920Z,100.0
2017-11-11T00:57:06.575Z,100.0
2017-11-11T00:58:08.305Z,100.0
2017-11-11T00:59:10.014Z,100.0
2017-11-11T01:00:11.670Z,100.0
2017-11-11T01:01:13.370Z,100.0
2017-11-11T01:02:15.042Z,100.0
2017-11-11T01:03:16.736Z,100.0
2017-11-11T01:04:18.414Z,100.0
2017-11-11T01:05:20.108Z,100.0
2017-11-11T01:06:21.828Z,100.0
2017-11-11T01:07:23.561Z,100.0
2017-11-11T01:08:25.185Z,100.0
2017-11-11T01:09:26.902Z,100.0
2017-11-11T01:10:28.533Z,100.0
2017-11-11T01:11:30.287Z,100.0
2017-11-11T01:12:32.042Z,100.0
2017-11-11T01:13:33.709Z,100.0
2017-11-11T01:14:35.449Z,100.0
2017-11-11T01:15:37.190Z,100.0
2017-11-11T01:16:38.899Z,100.0
2017-11-11T01:17:40.619Z,100.0
2017-11-11T01:18:42.347Z,100.0
2017-11-11T01:19:44.111Z,100.0
2017-11-11T01:20:45.797Z,100.0
2017-11-11T01:21:47.495Z,100.0
2017-11-11T01:22:49.190Z,100.0
2017-11-11T01:23:50.853Z,100.0
2017-11-11T01:24:52.530Z,100.0
2017-11-11T01:25:54.227Z,100.0
2017-11-11T01:26:55.935Z,100.0
2017-11-11T01:27:57.622Z,100.0
2017-11-11T01:28:59.309Z,100.0
2017-11-11T01:30:01.040Z,100.0
2017-11-11T01:31:02.755Z,100.0
2017-11-11T01:32:04.465Z,100.0
2017-11-11T01:33:06.148Z,100.0
2017-11-11T01:34:07.841Z,100.0
2017-11-11T01:35:09.484Z,100.0
2017-11-11T01:36:11.174Z,100.0
2017-11-11T01:37:12.857Z,100.0
2017-11-11T01:38:14.569Z,100.0
2017-11-11T01:39:16.239Z,100.0
2017-11-11T01:40:17.927Z,100.0
2017-11-11T01:41:19.674Z,100.0
2017-11-11T01:42:21.383Z,100.0
2017-11-11T01:43:23.040Z,100.0
2017-11-11T01:44:24.709Z,100.0
2017-11-11T01:45:26.456Z,100.0
2017-11-11T01:46:28.186Z,100.0
2017-11-11T01:47:29.852Z,100.0
2017-11-11T01:48:31.506Z,100.0
2017-11-11T01:49:33.238Z,100.0
2017-11-11T01:50:34.940Z,100.0
2017-11-11T01:51:36.619Z,100.0
2017-11-11T01:52:38.285Z,100.0
2017-11-11T01:53:39.993Z,100.0
2017-11-11T01:54:41.756Z,100.0
2017-11-11T01:55:43.396Z,100.0
2017-11-11T01:56:45.095Z,100.0
2017-11-11T01:57:46.760Z,100.0
2017-11-11T01:58:48.392Z,100.0
2017-11-11T01:59:50.060Z,100.0
2017-11-11T02:00:51.858Z,100.0
2017-11-11T02:01:53.586Z,100.0
2017-11-11T02:02:55.274Z,100.0
2017-11-11T02:03:56.908Z,100.0
2017-11-11T02:04:58.616Z,100.0
2017-11-11T02:06:00.294Z,100.0
2017-11-11T02:07:01.950Z,100.0
2017-11-11T02:08:03.706Z,100.0
2017-11-11T02:09:05.433Z,100.0
2017-11-11T02:10:07.136Z,100.0
2017-11-11T02:11:08.854Z,100.0
2017-11-11T02:12:10.506Z,100.0
2017-11-11T02:13:12.237Z,100.0
2017-11-11T02:14:13.913Z,100.0
2017-11-11T02:15:15.553Z,100.0
2017-11-11T02:16:17.224Z,100.0
2017-11-11T02:17:18.946Z,100.0
2017-11-11T02:18:20.697Z,100.0
2017-11-11T02:19:22.302Z,100.0
2017-11-11T02:20:24.780Z,100.0
2017-11-11T02:21:26.464Z,100.0
2017-11-11T02:22:28.119Z,100.0
2017-11-11T02:23:29.828Z,100.0
2017-11-11T02:24:31.537Z,100.0
2017-11-11T02:25:33.225Z,100.0
2017-11-11T02:26:34.845Z,100.0
2017-11-11T02:27:36.503Z,100.0
2017-11-11T02:28:38.134Z,100.0
2017-11-11T02:29:39.836Z,100.0
2017-11-11T02:30:41.525Z,100.0
2017-11-11T02:31:43.276Z,100.0
2017-11-11T02:32:44.966Z,100.0
2017-11-11T02:33:46.676Z,100.0
2017-11-11T02:34:48.362Z,100.0
2017-11-11T02:35:50.058Z,100.0
2017-11-11T02:36:51.760Z,100.0
2017-11-11T02:37:53.446Z,100.0
2017-11-11T02:38:55.223Z,100.0
2017-11-11T02:39:56.871Z,100.0
2017-11-11T02:40:58.495Z,100.0
2017-11-11T02:42:00.147Z,100.0
2017-11-11T02:43:01.848Z,100.0
2017-11-11T02:44:03.540Z,100.0
2017-11-11T02:45:05.254Z,100.0
2017-11-11T02:46:06.974Z,100.0
2017-11-11T02:47:08.666Z,100.0
2017-11-11T02:48:10.414Z,100.0
2017-11-11T02:49:12.192Z,100.0
2017-11-11T02:50:13.836Z,100.0
2017-11-11T02:51:15.547Z,100.0
2017-11-11T02:52:17.174Z,100.0
2017-11-11T02:53:18.862Z,100.0
2017-11-11T02:54:20.589Z,100.0
2017-11-11T02:55:22.273Z,100.0
2017-11-11T02:56:23.963Z,100.0
2017-11-11T02:57:25.670Z,100.0
2017-11-11T02:58:27.292Z,100.0
2017-11-11T02:59:29.001Z,100.0
2017-11-11T03:00:30.706Z,100.0
2017-11-11T03:01:32.333Z,100.0
2017-11-11T03:02:33.946Z,100.0
2017-11-11T03:03:35.708Z,100.0
2017-11-11T03:04:37.341Z,100.0
2017-11-11T03:05:39.072Z,100.0
2017-11-11T03:06:40.777Z,100.0
2017-11-11T03:07:42.424Z,100.0
2017-11-11T03:08:44.105Z,100.0
2017-11-11T03:09:45.824Z,100.0
2017-11-11T03:10:47.545Z,100.0
2017-11-11T03:11:49.243Z,100.0
2017-11-11T03:12:50.910Z,100.0
2017-11-11T03:13:52.531Z,100.0
2017-11-11T03:14:54.263Z,100.0
2017-11-11T03:15:55.982Z,100.0
2017-11-11T03:16:57.679Z,100.0
2017-11-11T03:17:59.315Z,100.0
2017-11-11T03:19:00.960Z,100.0
2017-11-11T03:20:02.637Z,100.0
2017-11-11T03:21:04.352Z,100.0
2017-11-11T03:22:06.060Z,100.0
2017-11-11T03:23:07.752Z,100.0
2017-11-11T03:24:09.421Z,100.0
2017-11-11T03:25:11.108Z,100.0
2017-11-11T03:26:12.821Z,100.0
2017-11-11T03:27:14.536Z,100.0
2017-11-11T03:28:16.223Z,100.0
2017-11-11T03:29:17.931Z,100.0
2017-11-11T03:30:19.658Z,100.0
2017-11-11T03:31:21.341Z,100.0
2017-11-11T03:32:23.043Z,100.0
2017-11-11T03:33:24.708Z,100.0
2017-11-11T03:34:26.332Z,100.0
2017-11-11T03:35:28.047Z,100.0
2017-11-11T03:36:29.710Z,100.0
2017-11-11T03:37:31.334Z,100.0
2017-11-11T03:38:33.055Z,100.0
2017-11-11T03:39:34.773Z,100.0
2017-11-11T03:40:36.418Z,100.0
2017-11-11T03:41:38.034Z,100.0
2017-11-11T03:42:39.730Z,100.0
2017-11-11T03:43:41.417Z,100.0
2017-11-11T03:44:43.162Z,100.0
2017-11-11T03:45:44.782Z,100.0
2017-11-11T03:46:46.402Z,100.0
2017-11-11T03:47:48.014Z,100.0
2017-11-11T03:48:49.745Z,100.0
2017-11-11T03:49:51.419Z,100.0
2017-11-11T03:50:53.089Z,100.0
2017-11-11T03:51:54.780Z,100.0
2017-11-11T03:52:56.578Z,100.0
2017-11-11T03:53:58.289Z,100.0
2017-11-11T03:54:59.992Z,100.0
2017-11-11T03:56:01.682Z,100.0
2017-11-11T03:57:03.399Z,100.0
2017-11-11T03:58:05.156Z,100.0
2017-11-11T03:59:06.854Z,100.0
2017-11-11T04:00:08.547Z,100.0
2017-11-11T04:01:10.185Z,100.0
2017-11-11T04:02:11.793Z,100.0
2017-11-11T04:03:13.544Z,100.0
2017-11-11T04:04:15.218Z,100.0
2017-11-11T04:05:16.901Z,100.0
2017-11-11T04:06:18.514Z,100.0
2017-11-11T04:07:20.230Z,100.0
2017-11-11T04:08:21.924Z,100.0
2017-11-11T04:09:23.568Z,100.0
2017-11-11T04:10:25.184Z,100.0
2017-11-11T04:11:26.877Z,100.0
2017-11-11T04:12:28.552Z,100.0
2017-11-11T04:13:30.270Z,100.0
2017-11-11T04:14:31.969Z,100.0
2017-11-11T04:15:33.587Z,100.0
2017-11-11T04:16:35.286Z,100.0
2017-11-11T04:17:36.916Z,100.0
2017-11-11T04:18:38.622Z,100.0
2017-11-11T04:19:40.330Z,100.0
2017-11-11T04:20:42.016Z,100.0
2017-11-11T04:21:43.645Z,100.0
2017-11-11T04:22:45.358Z,100.0
2017-11-11T04:23:47.130Z,100.0
2017-11-11T04:24:48.851Z,100.0
2017-11-11T04:25:50.468Z,100.0
2017-11-11T04:26:52.094Z,100.0
2017-11-11T04:27:53.828Z,100.0
2017-11-11T04:28:55.524Z,100.0
2017-11-11T04:29:57.183Z,100.0
2017-11-11T04:30:58.959Z,100.0
2017-11-11T04:32:00.667Z,100.0
2017-11-11T04:33:02.367Z,100.0
2017-11-11T04:34:03.980Z,100.0
2017-11-11T04:35:05.708Z,100.0
2017-11-11T04:36:07.341Z,100.0
2017-11-11T04:37:09.022Z,100.0
2017-11-11T04:38:10.649Z,100.0
2017-11-11T04:39:12.359Z,100.0
2017-11-11T04:40:14.091Z,100.0
2017-11-11T04:41:15.778Z,100.0
2017-11-11T04:42:17.401Z,100.0
2017-11-11T04:43:19.010Z,100.0
2017-11-11T04:44:20.671Z,100.0
2017-11-11T04:45:22.331Z,100.0
2017-11-11T04:46:24.017Z,100.0
2017-11-11T04:47:25.751Z,100.0
2017-11-11T04:48:27.431Z,100.0
2017-11-11T04:49:29.093Z,100.0
2017-11-11T04:50:30.791Z,100.0
2017-11-11T04:51:32.403Z,100.0
2017-11-11T04:52:34.191Z,100.0
2017-11-11T04:53:35.862Z,100.0
2017-11-11T04:54:37.567Z,100.0
2017-11-11T04:55:39.246Z,100.0
2017-11-11T04:56:40.959Z,100.0
2017-11-11T04:57:42.668Z,100.0
2017-11-11T04:58:44.419Z,100.0
2017-11-11T04:59:46.095Z,100.0
2017-11-11T05:00:47.769Z,100.0
2017-11-11T05:01:49.525Z,100.0
2017-11-11T05:02:51.273Z,100.0
2017-11-11T05:03:52.933Z,100.0
2017-11-11T05:04:54.550Z,100.0
2017-11-11T05:05:56.223Z,100.0
2017-11-11T05:06:57.907Z,100.0
2017-11-11T05:07:59.621Z,100.0
2017-11-11T05:09:01.288Z,100.0
2017-11-11T05:10:03.000Z,100.0
2017-11-11T05:11:04.686Z,100.0
2017-11-11T05:12:06.443Z,100.0
2017-11-11T05:13:08.162Z,100.0
2017-11-11T05:14:10.129Z,100.0
2017-11-11T05:15:11.798Z,100.0
2017-11-11T05:16:13.620Z,100.0
2017-11-11T05:17:15.295Z,100.0
2017-11-11T05:18:16.907Z,100.0
2017-11-11T05:19:18.721Z,100.0
2017-11-11T05:20:20.349Z,100.0
2017-11-11T05:21:22.040Z,100.0
2017-11-11T05:22:23.721Z,100.0
2017-11-11T05:23:25.394Z,100.0
2017-11-11T05:24:27.055Z,100.0
2017-11-11T05:25:28.749Z,100.0
2017-11-11T05:26:30.399Z,100.0
2017-11-11T05:27:32.019Z,100.0
2017-11-11T05:28:33.681Z,100.0
2017-11-11T05:29:35.308Z,100.0
2017-11-11T05:30:36.913Z,100.0
2017-11-11T05:31:38.525Z,100.0
2017-11-11T05:32:40.159Z,100.0
2017-11-11T05:33:41.818Z,100.0
2017-11-11T05:34:43.489Z,100.0
2017-11-11T05:35:45.109Z,100.0
2017-11-11T05:36:46.750Z,100.0
2017-11-11T05:37:48.365Z,100.0
2017-11-11T05:38:49.986Z,100.0
2017-11-11T05:39:51.595Z,100.0
2017-11-11T05:40:53.209Z,100.0
2017-11-11T05:41:54.830Z,100.0
2017-11-11T05:42:56.449Z,100.0
2017-11-11T05:43:58.058Z,100.0
2017-11-11T05:44:59.665Z,100.0
2017-11-11T05:46:01.300Z,100.0
2017-11-11T05:47:02.991Z,100.0
2017-11-11T05:48:04.647Z,100.0
2017-11-11T05:49:06.286Z,100.0
2017-11-11T05:50:07.999Z,100.0
2017-11-11T05:51:09.629Z,100.0
2017-11-11T05:52:11.352Z,100.0
2017-11-11T05:53:13.002Z,100.0
2017-11-11T05:54:14.686Z,100.0
2017-11-11T05:55:16.384Z,100.0
2017-11-11T05:56:17.997Z,100.0
2017-11-11T05:57:19.611Z,100.0
2017-11-11T05:58:21.291Z,100.0
2017-11-11T05:59:22.906Z,100.0
2017-11-11T06:00:26.069Z,100.0
2017-11-11T06:01:27.828Z,100.0
2017-11-11T06:02:29.782Z,100.0
2017-11-11T06:03:31.489Z,100.0
2017-11-11T06:04:33.196Z,100.0
2017-11-11T06:05:34.838Z,100.0
2017-11-11T06:06:36.452Z,100.0
2017-11-11T06:07:38.061Z,100.0
2017-11-11T06:08:39.717Z,100.0
2017-11-11T06:09:41.330Z,100.0
2017-11-11T06:10:43.424Z,100.0
2017-11-11T06:11:45.378Z,100.0
2017-11-11T06:12:46.989Z,100.0
2017-11-11T06:13:48.600Z,100.0
2017-11-11T06:14:50.286Z,100.0
2017-11-11T06:15:51.893Z,100.0
2017-11-11T06:16:53.612Z,100.0
2017-11-11T06:17:55.310Z,100.0
2017-11-11T06:18:56.907Z,100.0
2017-11-11T06:19:58.529Z,100.0
2017-11-11T06:21:00.268Z,100.0
2017-11-11T06:22:01.937Z,100.0
2017-11-11T06:23:03.598Z,100.0
2017-11-11T06:24:05.210Z,100.0
2017-11-11T06:25:06.892Z,100.0
2017-11-11T06:26:08.612Z,100.0
2017-11-11T06:27:10.317Z,100.0
2017-11-11T06:28:11.952Z,100.0
2017-11-11T06:29:13.553Z,100.0
2017-11-11T06:30:15.170Z,100.0
2017-11-11T06:31:16.780Z,100.0
2017-11-11T06:32:18.465Z,100.0
2017-11-11T06:33:20.117Z,100.0
2017-11-11T06:34:21.795Z,100.0
2017-11-11T06:35:23.450Z,100.0
2017-11-11T06:36:25.073Z,100.0
2017-11-11T06:37:27.370Z,100.0
2017-11-11T06:38:29.089Z,100.0
2017-11-11T06:39:30.702Z,100.0
2017-11-11T06:40:32.397Z,100.0
2017-11-11T06:41:34.062Z,100.0
2017-11-11T06:42:35.802Z,100.0
2017-11-11T06:43:37.456Z,100.0
2017-11-11T06:44:39.138Z,100.0
2017-11-11T06:45:40.972Z,100.0
2017-11-11T06:46:42.672Z,100.0
2017-11-11T06:47:44.425Z,100.0
2017-11-11T06:48:46.062Z,100.0
2017-11-11T06:49:47.679Z,100.0
2017-11-11T06:50:49.395Z,100.0
2017-11-11T06:51:51.050Z,100.0
2017-11-11T06:52:52.663Z,100.0
2017-11-11T06:53:54.277Z,100.0
2017-11-11T06:54:55.958Z,100.0
2017-11-11T06:55:57.570Z,100.0
2017-11-11T06:56:59.297Z,100.0
2017-11-11T06:58:00.933Z,100.0
2017-11-11T06:59:02.557Z,100.0
2017-11-11T07:00:04.210Z,100.0
2017-11-11T07:01:05.847Z,100.0
2017-11-11T07:02:07.460Z,100.0
2017-11-11T07:03:09.183Z,100.0
2017-11-11T07:04:10.840Z,100.0
2017-11-11T07:05:12.450Z,100.0
2017-11-11T07:06:14.118Z,100.0
2017-11-11T07:07:15.807Z,100.0
2017-11-11T07:08:17.481Z,100.0
2017-11-11T07:09:19.112Z,100.0
2017-11-11T07:10:20.866Z,100.0
2017-11-11T07:11:22.559Z,100.0
2017-11-11T07:12:24.262Z,100.0
2017-11-11T07:13:25.931Z,100.0
2017-11-11T07:14:27.666Z,100.0
2017-11-11T07:15:29.416Z,100.0
2017-11-11T07:16:31.150Z,100.0
2017-11-11T07:17:32.771Z,100.0
2017-11-11T07:18:34.383Z,100.0
2017-11-11T07:19:36.005Z,100.0
2017-11-11T07:20:37.703Z,100.0
2017-11-11T07:21:39.367Z,100.0
2017-11-11T07:22:41.033Z,100.0
2017-11-11T07:23:42.764Z,100.0
2017-11-11T07:24:44.440Z,100.0
2017-11-11T07:25:46.126Z,100.0
2017-11-11T07:26:47.834Z,100.0
2017-11-11T07:27:49.527Z,100.0
2017-11-11T07:28:51.223Z,100.0
2017-11-11T07:29:52.897Z,100.0
2017-11-11T07:30:54.629Z,100.0
2017-11-11T07:31:56.321Z,100.0
2017-11-11T07:32:58.014Z,100.0
2017-11-11T07:33:59.735Z,100.0
2017-11-11T07:35:01.417Z,100.0
2017-11-11T07:36:03.106Z,100.0
2017-11-11T07:37:04.767Z,100.0
2017-11-11T07:38:06.389Z,100.0
2017-11-11T07:39:08.078Z,100.0
2017-11-11T07:40:09.770Z,100.0
2017-11-11T07:41:11.382Z,100.0
2017-11-11T07:42:13.140Z,100.0
2017-11-11T07:43:14.772Z,100.0
2017-11-11T07:44:16.432Z,100.0
2017-11-11T07:45:18.052Z,100.0
2017-11-11T07:46:19.756Z,100.0
2017-11-11T07:47:21.423Z,100.0
2017-11-11T07:48:23.026Z,100.0
2017-11-11T07:49:24.729Z,100.0
2017-11-11T07:50:26.420Z,100.0
2017-11-11T07:51:28.046Z,100.0
2017-11-11T07:52:29.661Z,100.0
2017-11-11T07:53:31.334Z,100.0
2017-11-11T07:54:33.015Z,100.0
2017-11-11T07:55:34.688Z,99.6
2017-11-11T07:56:36.401Z,100.0
2017-11-11T07:57:38.076Z,100.0
2017-11-11T07:58:39.752Z,100.0
2017-11-11T07:59:41.394Z,99.4
2017-11-11T08:00:43.061Z,99.6
2017-11-11T08:01:44.817Z,99.4
2017-11-11T08:02:46.457Z,98.6
2017-11-11T08:03:48.123Z,98.8
2017-11-11T08:04:49.793Z,98.6
2017-11-11T08:05:51.403Z,99.2
2017-11-11T08:06:53.117Z,99.2
2017-11-11T08:07:54.844Z,99.3
2017-11-11T08:08:56.577Z,99.2
2017-11-11T08:09:58.247Z,98.7
2017-11-11T08:10:59.907Z,98.7
2017-11-11T08:12:01.568Z,97.6
2017-11-11T08:13:03.203Z,98.4
2017-11-11T08:14:04.882Z,98.4
2017-11-11T08:15:06.501Z,97.9
2017-11-11T08:16:08.194Z,97.2
2017-11-11T08:17:09.816Z,97.7
2017-11-11T08:18:11.509Z,97.8
2017-11-11T08:19:13.125Z,97.9
2017-11-11T08:20:14.795Z,97.9
2017-11-11T08:21:16.514Z,97.1
2017-11-11T08:22:18.135Z,97.0
2017-11-11T08:23:19.846Z,96.8
2017-11-11T08:24:21.526Z,97.4
2017-11-11T08:25:23.136Z,98.2
2017-11-11T08:26:24.748Z,97.1
2017-11-11T08:27:26.478Z,98.1
2017-11-11T08:28:28.173Z,97.4
2017-11-11T08:29:29.861Z,97.4
2017-11-11T08:30:31.513Z,96.9
2017-11-11T08:31:33.180Z,97.9
2017-11-11T08:32:34.872Z,97.9
2017-11-11T08:33:36.604Z,98.0
2017-11-11T08:34:38.276Z,98.0
2017-11-11T08:35:39.994Z,98.0
2017-11-11T08:36:41.665Z,97.8
2017-11-11T08:37:43.358Z,97.8
2017-11-11T08:38:45.004Z,98.4
2017-11-11T08:39:46.630Z,98.0
2017-11-11T08:40:48.334Z,98.4
2017-11-11T08:41:50.052Z,98.9
2017-11-11T08:42:51.679Z,98.7
2017-11-11T08:43:53.403Z,98.4
2017-11-11T08:44:55.077Z,98.2
2017-11-11T08:45:56.689Z,99.3
2017-11-11T08:46:58.314Z,99.8
2017-11-11T08:48:00.026Z,99.5
2017-11-11T08:49:01.650Z,100.0
2017-11-11T08:50:03.272Z,100.0
2017-11-11T08:51:04.925Z,100.0
2017-11-11T08:52:06.637Z,99.7
2017-11-11T08:53:08.289Z,100.0
2017-11-11T08:54:09.926Z,100.0
2017-11-11T08:55:11.683Z,100.0
2017-11-11T08:56:13.367Z,100.0
2017-11-11T08:57:15.052Z,100.0
2017-11-11T08:58:16.708Z,99.7
2017-11-11T08:59:18.362Z,100.0
2017-11-11T09:00:20.076Z,100.0
2017-11-11T09:01:21.781Z,100.0
2017-11-11T09:02:23.395Z,100.0
2017-11-11T09:03:25.117Z,100.0
2017-11-11T09:04:26.813Z,100.0
2017-11-11T09:05:28.546Z,100.0
2017-11-11T09:06:30.156Z,100.0
2017-11-11T09:07:31.771Z,100.0
2017-11-11T09:08:33.460Z,100.0
2017-11-11T09:09:35.166Z,100.0
2017-11-11T09:10:36.788Z,100.0
2017-11-11T09:11:38.455Z,100.0
2017-11-11T09:12:40.077Z,100.0
2017-11-11T09:13:41.682Z,100.0
2017-11-11T09:14:43.295Z,100.0
2017-11-11T09:15:44.909Z,100.0
2017-11-11T09:16:46.519Z,100.0
2017-11-11T09:17:48.230Z,100.0
2017-11-11T09:18:49.934Z,100.0
2017-11-11T09:19:51.639Z,100.0
2017-11-11T09:20:53.316Z,100.0
2017-11-11T09:21:54.922Z,100.0
2017-11-11T09:22:56.634Z,100.0
2017-11-11T09:23:58.356Z,100.0
2017-11-11T09:25:00.029Z,100.0
2017-11-11T09:26:01.695Z,100.0
2017-11-11T09:27:03.419Z,100.0
2017-11-11T09:28:05.145Z,100.0
2017-11-11T09:29:06.762Z,100.0
2017-11-11T09:30:08.464Z,100.0
2017-11-11T09:31:10.064Z,100.0
2017-11-11T09:32:11.788Z,100.0
2017-11-11T09:33:13.489Z,100.0
2017-11-11T09:34:15.218Z,100.0
2017-11-11T09:35:16.914Z,100.0
2017-11-11T09:36:18.603Z,100.0
2017-11-11T09:37:20.286Z,100.0
2017-11-11T09:38:21.914Z,100.0
2017-11-11T09:39:23.532Z,100.0
2017-11-11T09:40:25.201Z,100.0
2017-11-11T09:41:26.907Z,100.0
2017-11-11T09:42:28.628Z,100.0
2017-11-11T09:43:30.260Z,100.0
2017-11-11T09:44:31.906Z,100.0
2017-11-11T09:45:33.516Z,100.0
2017-11-11T09:46:35.130Z,100.0
2017-11-11T09:47:36.747Z,100.0
2017-11-11T09:48:38.409Z,100.0
2017-11-11T09:49:40.092Z,100.0
2017-11-11T09:50:41.775Z,100.0
2017-11-11T09:51:43.393Z,100.0
2017-11-11T09:52:45.056Z,100.0
2017-11-11T09:53:46.740Z,100.0
2017-11-11T09:54:48.352Z,100.0
2017-11-11T09:55:49.978Z,100.0
2017-11-11T09:56:51.626Z,100.0
2017-11-11T09:57:53.303Z,100.0
2017-11-11T09:58:54.985Z,100.0
2017-11-11T09:59:56.655Z,100.0
2017-11-11T10:00:58.266Z,100.0
2017-11-11T10:01:59.953Z,100.0
2017-11-11T10:03:01.567Z,100.0
2017-11-11T10:04:03.179Z,100.0
2017-11-11T10:05:04.798Z,100.0
2017-11-11T10:06:06.409Z,100.0
2017-11-11T10:07:08.060Z,100.0
2017-11-11T10:08:09.732Z,100.0
2017-11-11T10:09:11.406Z,100.0
2017-11-11T10:10:13.025Z,100.0
2017-11-11T10:11:14.657Z,100.0
2017-11-11T10:12:16.271Z,100.0
2017-11-11T10:13:17.964Z,100.0
2017-11-11T10:14:19.652Z,100.0
2017-11-11T10:15:21.313Z,100.0
2017-11-11T10:16:22.971Z,100.0
2017-11-11T10:17:24.603Z,100.0
2017-11-11T10:18:26.220Z,100.0
2017-11-11T10:19:27.845Z,100.0
2017-11-11T10:20:29.443Z,100.0
2017-11-11T10:21:31.069Z,100.0
2017-11-11T10:22:32.749Z,100.0
2017-11-11T10:23:34.362Z,100.0
2017-11-11T10:24:35.981Z,100.0
2017-11-11T10:25:37.592Z,100.0
2017-11-11T10:26:39.312Z,100.0
2017-11-11T10:27:41.007Z,100.0
2017-11-11T10:28:42.679Z,100.0
2017-11-11T10:29:44.366Z,100.0
2017-11-11T10:30:46.052Z,100.0
2017-11-11T10:31:47.734Z,100.0
2017-11-11T10:32:49.444Z,100.0
2017-11-11T10:33:51.135Z,100.0
2017-11-11T10:34:52.760Z,100.0
2017-11-11T10:35:54.430Z,100.0
2017-11-11T10:36:56.048Z,100.0
2017-11-11T10:37:57.661Z,100.0
2017-11-11T10:38:59.279Z,100.0
2017-11-11T10:40:00.891Z,100.0
2017-11-11T10:41:02.507Z,100.0
2017-11-11T10:42:04.121Z,100.0
2017-11-11T10:43:05.733Z,100.0
2017-11-11T10:44:07.399Z,100.0
2017-11-11T10:45:09.047Z,100.0
2017-11-11T10:46:10.668Z,100.0
2017-11-11T10:47:12.279Z,100.0
2017-11-11T10:48:13.986Z,100.0
2017-11-11T10:49:15.593Z,100.0
2017-11-11T10:50:17.207Z,100.0
2017-11-11T10:51:18.880Z,100.0
2017-11-11T10:52:20.631Z,100.0
2017-11-11T10:53:22.320Z,100.0
2017-11-11T10:54:23.961Z,100.0
2017-11-11T10:55:25.605Z,100.0
2017-11-11T10:56:27.217Z,100.0
2017-11-11T10:57:28.832Z,100.0
2017-11-11T10:58:30.447Z,100.0
2017-11-11T10:59:32.064Z,100.0
2017-11-11T11:00:33.676Z,100.0
2017-11-11T11:01:35.292Z,100.0
2017-11-11T11:02:36.905Z,100.0
2017-11-11T11:03:38.605Z,100.0
2017-11-11T11:04:40.230Z,100.0
2017-11-11T11:05:41.875Z,100.0
2017-11-11T11:06:43.475Z,100.0
2017-11-11T11:07:45.096Z,100.0
2017-11-11T11:08:46.711Z,100.0
2017-11-11T11:09:48.327Z,100.0
2017-11-11T11:10:49.938Z,100.0
2017-11-11T11:11:51.551Z,100.0
2017-11-11T11:12:53.163Z,100.0
2017-11-11T11:13:54.778Z,100.0
2017-11-11T11:14:56.397Z,100.0
2017-11-11T11:15:58.007Z,100.0
2017-11-11T11:16:59.620Z,100.0
2017-11-11T11:18:01.232Z,100.0
2017-11-11T11:19:02.845Z,100.0
2017-11-11T11:20:04.461Z,100.0
2017-11-11T11:21:06.074Z,100.0
2017-11-11T11:22:07.689Z,100.0
2017-11-11T11:23:09.298Z,100.0
2017-11-11T11:24:10.909Z,100.0
2017-11-11T11:25:12.520Z,100.0
2017-11-11T11:26:14.139Z,100.0
2017-11-11T11:27:15.750Z,100.0
2017-11-11T11:28:17.361Z,100.0
2017-11-11T11:29:18.980Z,100.0
2017-11-11T11:30:20.592Z,100.0
2017-11-11T11:31:22.206Z,100.0
2017-11-11T11:32:23.819Z,100.0
2017-11-11T11:33:25.434Z,100.0
2017-11-11T11:34:27.046Z,100.0
2017-11-11T11:35:28.661Z,100.0
2017-11-11T11:36:30.277Z,100.0
2017-11-11T11:37:31.890Z,100.0
2017-11-11T11:38:33.504Z,100.0
2017-11-11T11:39:35.116Z,100.0
2017-11-11T11:40:36.729Z,100.0
2017-11-11T11:41:38.345Z,100.0
2017-11-11T11:42:39.958Z,100.0
2017-11-11T11:43:41.574Z,100.0
2017-11-11T11:44:43.186Z,100.0
2017-11-11T11:45:44.797Z,100.0
2017-11-11T11:46:46.406Z,100.0
2017-11-11T11:47:48.020Z,100.0
2017-11-11T11:48:49.649Z,100.0
2017-11-11T11:49:51.252Z,100.0
2017-11-11T11:50:52.876Z,100.0
2017-11-11T11:51:54.502Z,100.0
2017-11-11T11:52:56.092Z,100.0
2017-11-11T11:53:57.704Z,100.0
2017-11-11T11:54:59.319Z,100.0
2017-11-11T11:56:00.933Z,100.0
2017-11-11T11:57:02.547Z,100.0
2017-11-11T11:58:04.160Z,100.0
2017-11-11T11:59:05.774Z,100.0
2017-11-11T12:00:07.390Z,100.0
2017-11-11T12:01:09.005Z,100.0
2017-11-11T12:02:10.619Z,100.0
2017-11-11T12:03:12.230Z,100.0
2017-11-11T12:04:13.843Z,100.0
2017-11-11T12:05:15.462Z,100.0
2017-11-11T12:06:17.114Z,100.0
2017-11-11T12:07:18.727Z,100.0
2017-11-11T12:08:20.341Z,100.0
2017-11-11T12:09:21.956Z,100.0
2017-11-11T12:10:23.573Z,100.0
2017-11-11T12:11:25.189Z,100.0
2017-11-11T12:12:26.805Z,100.0
2017-11-11T12:13:28.416Z,100.0
2017-11-11T12:14:30.029Z,100.0
2017-11-11T12:15:31.650Z,100.0
2017-11-11T12:16:33.260Z,100.0
2017-11-11T12:17:34.873Z,100.0
2017-11-11T12:18:36.493Z,100.0
2017-11-11T12:19:38.109Z,100.0
2017-11-11T12:20:39.718Z,100.0
2017-11-11T12:21:41.334Z,100.0
2017-11-11T12:22:42.949Z,100.0
2017-11-11T12:23:44.565Z,100.0
2017-11-11T12:24:46.178Z,100.0
2017-11-11T12:25:47.795Z,100.0
2017-11-11T12:26:49.410Z,100.0
2017-11-11T12:27:51.023Z,100.0
2017-11-11T12:28:52.637Z,100.0
2017-11-11T12:29:54.251Z,100.0
2017-11-11T12:30:55.867Z,100.0
2017-11-11T12:31:57.484Z,100.0
2017-11-11T12:32:59.101Z,100.0
2017-11-11T12:34:00.725Z,100.0
2017-11-11T12:35:02.344Z,100.0
2017-11-11T12:36:03.976Z,100.0
2017-11-11T12:37:05.580Z,100.0
2017-11-11T12:38:07.194Z,100.0
2017-11-11T12:39:08.809Z,100.0
2017-11-11T12:40:10.426Z,100.0
2017-11-11T12:41:12.041Z,100.0
2017-11-11T12:42:13.655Z,100.0
2017-11-11T12:43:15.267Z,100.0
2017-11-11T12:44:16.881Z,100.0
2017-11-11T12:45:18.514Z,100.0
2017-11-11T12:46:20.114Z,100.0
2017-11-11T12:47:21.785Z,100.0
2017-11-11T12:48:23.404Z,100.0
2017-11-11T12:49:25.025Z,100.0
2017-11-11T12:50:26.651Z,100.0
2017-11-11T12:51:28.305Z,100.0
2017-11-11T12:52:29.931Z,100.0
2017-11-11T12:53:31.546Z,100.0
2017-11-11T12:54:33.211Z,100.0
2017-11-11T12:55:34.885Z,100.0
2017-11-11T12:56:36.535Z,100.0
2017-11-11T12:57:38.224Z,100.0
2017-11-11T12:58:39.892Z,100.0
2017-11-11T12:59:41.504Z,100.0
2017-11-11T13:00:43.198Z,100.0
2017-11-11T13:01:44.832Z,100.0
2017-11-11T13:02:46.445Z,100.0
2017-11-11T13:03:48.065Z,100.0
2017-11-11T13:04:49.737Z,100.0
2017-11-11T13:05:51.352Z,100.0
2017-11-11T13:06:52.970Z,100.0
2017-11-11T13:07:54.641Z,100.0
2017-11-11T13:08:56.297Z,100.0
2017-11-11T13:09:58.115Z,100.0
2017-11-11T13:10:59.828Z,100.0
2017-11-11T13:12:01.489Z,100.0
2017-11-11T13:13:03.174Z,100.0
2017-11-11T13:14:04.874Z,100.0
2017-11-11T13:15:06.554Z,100.0
2017-11-11T13:16:08.250Z,100.0